createdAt,value
2023-02-11T00:01:38.832Z,16.40
2023-02-11T00:04:08.638Z,15.87
2023-02-11T00:06:37.691Z,16.23
2023-02-11T00:09:06.890Z,14.90
2023-02-11T00:11:35.674Z,15.63
2023-02-11T00:14:07.856Z,15.57
2023-02-11T00:16:37.668Z,14.57
2023-02-11T00:19:06.746Z,14.13
2023-02-11T00:21:36.455Z,13.80
2023-02-11T00:24:05.617Z,13.33
2023-02-11T00:26:36.588Z,13.40
2023-02-11T00:29:06.409Z,13.30
2023-02-11T00:31:35.311Z,11.57
2023-02-11T00:34:05.149Z,11.73
2023-02-11T00:36:33.590Z,11.63
2023-02-11T00:39:02.263Z,11.10
2023-02-11T00:41:31.210Z,11.87
2023-02-11T00:43:59.598Z,10.77
2023-02-11T00:46:28.027Z,11.53
2023-02-11T00:48:57.941Z,11.73
2023-02-11T00:51:29.451Z,10.97
2023-02-11T00:53:58.072Z,11.13
2023-02-11T00:56:26.493Z,11.73
2023-02-11T00:58:55.123Z,11.23
2023-02-11T01:01:23.593Z,11.60
2023-02-11T01:03:52.500Z,13.40
2023-02-11T01:06:20.969Z,12.87
2023-02-11T01:08:50.717Z,12.87
2023-02-11T01:11:21.937Z,12.70
2023-02-11T01:13:51.349Z,12.57
2023-02-11T01:16:21.678Z,11.53
2023-02-11T01:18:50.317Z,12.20
2023-02-11T01:21:18.890Z,11.37
2023-02-11T01:23:47.233Z,12.57
2023-02-11T01:26:16.979Z,11.93
2023-02-11T01:28:45.703Z,11.97
2023-02-11T01:31:14.176Z,12.77
2023-02-11T01:33:42.635Z,13.57
2023-02-11T01:36:12.865Z,12.00
2023-02-11T01:38:41.463Z,11.80
2023-02-11T01:41:14.637Z,11.43
2023-02-11T01:43:48.222Z,12.00
2023-02-11T01:46:29.369Z,11.13
2023-02-11T01:49:02.547Z,11.33
2023-02-11T01:51:37.317Z,10.63
2023-02-11T01:54:25.919Z,11.03
2023-02-11T01:57:15.882Z,11.17
2023-02-11T01:59:52.599Z,11.00
2023-02-11T02:02:27.803Z,10.90
2023-02-11T02:05:03.705Z,11.07
2023-02-11T02:07:40.683Z,10.53
2023-02-11T02:10:17.797Z,11.30
2023-02-11T02:12:46.156Z,10.90
2023-02-11T02:15:33.069Z,11.37
2023-02-11T02:18:11.245Z,11.57
2023-02-11T02:21:37.663Z,12.60
2023-02-11T02:24:44.237Z,11.10
2023-02-11T02:27:38.671Z,11.67
2023-02-11T02:30:51.914Z,10.47
2023-02-11T02:33:47.009Z,11.30
2023-02-11T02:36:24.267Z,10.73
2023-02-11T02:38:59.034Z,10.90
2023-02-11T02:41:31.726Z,11.63
2023-02-11T02:44:00.454Z,11.43
2023-02-11T02:46:32.729Z,11.00
2023-02-11T02:49:02.846Z,11.60
2023-02-11T02:51:50.239Z,10.30
2023-02-11T02:55:04.291Z,11.03
2023-02-11T02:57:39.890Z,11.13
2023-02-11T03:00:25.827Z,11.40
2023-02-11T03:03:13.611Z,10.67
2023-02-11T03:05:55.264Z,10.20
2023-02-11T03:08:32.103Z,10.80
2023-02-11T03:11:02.473Z,10.90
2023-02-11T03:13:34.378Z,10.03
2023-02-11T03:16:09.499Z,10.50
2023-02-11T03:18:42.088Z,9.97
2023-02-11T03:21:15.407Z,10.60
2023-02-11T03:23:51.238Z,9.77
2023-02-11T03:26:26.985Z,10.77
2023-02-11T03:29:04.270Z,11.27
2023-02-11T03:31:41.485Z,9.30
2023-02-11T03:34:15.745Z,10.17
2023-02-11T03:36:51.022Z,9.73
2023-02-11T03:39:25.794Z,9.63
2023-02-11T03:41:59.800Z,10.07
2023-02-11T03:44:35.219Z,9.10
2023-02-11T03:47:06.900Z,10.07
2023-02-11T03:49:36.804Z,8.83
2023-02-11T03:52:11.340Z,10.17
2023-02-11T03:54:42.998Z,10.33
2023-02-11T03:57:11.398Z,10.13
2023-02-11T03:59:55.065Z,10.87
2023-02-11T04:02:26.446Z,10.30
2023-02-11T04:04:54.793Z,10.93
2023-02-11T04:07:24.866Z,11.07
2023-02-11T04:09:53.589Z,10.70
2023-02-11T04:12:22.137Z,11.30
2023-02-11T04:14:50.550Z,12.67
2023-02-11T04:17:19.149Z,11.20
2023-02-11T04:19:47.469Z,12.30
2023-02-11T04:22:15.907Z,12.27
2023-02-11T04:24:45.619Z,12.50
2023-02-11T04:27:14.045Z,11.63
2023-02-11T04:29:42.405Z,12.77
2023-02-11T04:32:12.085Z,14.13
2023-02-11T04:34:40.701Z,12.23
2023-02-11T04:37:09.550Z,13.30
2023-02-11T04:39:38.120Z,13.70
2023-02-11T04:42:08.288Z,12.23
2023-02-11T04:44:36.642Z,13.83
2023-02-11T04:47:05.513Z,13.70
2023-02-11T04:49:33.901Z,12.97
2023-02-11T04:52:02.292Z,13.70
2023-02-11T04:54:30.655Z,12.70
2023-02-11T04:56:59.002Z,14.20
2023-02-11T04:59:28.753Z,13.47
2023-02-11T05:01:57.069Z,13.93
2023-02-11T05:04:25.551Z,13.67
2023-02-11T05:06:53.982Z,14.10
2023-02-11T05:09:22.648Z,14.10
2023-02-11T05:11:50.968Z,13.73
2023-02-11T05:14:19.338Z,13.53
2023-02-11T05:16:49.073Z,13.77
2023-02-11T05:19:17.473Z,14.53
2023-02-11T05:22:01.471Z,14.33
2023-02-11T05:24:30.994Z,14.00
2023-02-11T05:26:59.401Z,14.00
2023-02-11T05:29:27.799Z,12.57
2023-02-11T05:31:57.587Z,13.60
2023-02-11T05:34:25.970Z,13.77
2023-02-11T05:36:54.352Z,13.73
2023-02-11T05:39:22.779Z,14.10
2023-02-11T05:41:51.118Z,14.40
2023-02-11T05:44:19.500Z,13.93
2023-02-11T05:46:49.210Z,14.57
2023-02-11T05:49:19.843Z,14.90
2023-02-11T05:51:48.291Z,14.03
2023-02-11T05:54:16.854Z,15.20
2023-02-11T05:56:45.336Z,13.93
2023-02-11T05:59:15.574Z,14.13
2023-02-11T06:01:44.329Z,14.67
2023-02-11T06:04:12.736Z,14.40
2023-02-11T06:06:42.462Z,14.40
2023-02-11T06:09:11.891Z,14.37
2023-02-11T06:11:40.579Z,13.83
2023-02-11T06:14:09.959Z,15.00
2023-02-11T06:16:38.624Z,13.60
2023-02-11T06:19:07.019Z,15.30
2023-02-11T06:21:43.373Z,14.10
2023-02-11T06:24:14.216Z,13.40
2023-02-11T06:26:42.605Z,14.23
2023-02-11T06:29:11.145Z,15.10
2023-02-11T06:31:40.309Z,15.53
2023-02-11T06:34:09.425Z,14.20
2023-02-11T06:36:40.474Z,15.20
2023-02-11T06:39:09.525Z,14.90
2023-02-11T06:41:39.317Z,15.73
2023-02-11T06:44:08.156Z,15.03
2023-02-11T06:46:36.620Z,15.77
2023-02-11T06:49:05.033Z,14.70
2023-02-11T06:51:33.404Z,16.73
2023-02-11T06:54:01.758Z,15.80
2023-02-11T06:56:30.425Z,15.50
2023-02-11T06:59:00.188Z,15.70
2023-02-11T07:01:29.704Z,16.30
2023-02-11T07:03:58.286Z,16.43
2023-02-11T07:06:28.988Z,15.77
2023-02-11T07:08:58.003Z,16.10
2023-02-11T07:11:29.860Z,15.93
2023-02-11T07:14:04.887Z,16.20
2023-02-11T07:16:34.138Z,16.90
2023-02-11T07:19:03.046Z,17.13
2023-02-11T07:21:31.722Z,16.90
2023-02-11T07:24:00.249Z,16.63
2023-02-11T07:26:29.016Z,16.57
2023-02-11T07:28:57.504Z,18.90
2023-02-11T07:31:30.570Z,16.93
2023-02-11T07:34:01.578Z,17.70
2023-02-11T07:36:32.155Z,16.63
2023-02-11T07:39:01.163Z,19.00
2023-02-11T07:41:29.841Z,18.53
2023-02-11T07:43:58.236Z,18.50
2023-02-11T07:46:28.990Z,19.33
2023-02-11T07:48:57.700Z,18.17
2023-02-11T07:51:29.303Z,18.47
2023-02-11T07:54:00.482Z,18.27
2023-02-11T07:56:30.254Z,18.73
2023-02-11T07:59:03.197Z,19.50
2023-02-11T08:01:33.320Z,17.77
2023-02-11T08:04:03.230Z,19.20
2023-02-11T08:06:34.055Z,18.50
2023-02-11T08:09:07.078Z,17.63
2023-02-11T08:11:35.470Z,18.73
2023-02-11T08:14:04.138Z,19.37
2023-02-11T08:16:36.035Z,18.27
2023-02-11T08:19:08.143Z,19.50
2023-02-11T08:21:36.554Z,20.03
2023-02-11T08:24:05.510Z,20.00
2023-02-11T08:26:35.622Z,20.40
2023-02-11T08:29:09.970Z,20.53
2023-02-11T08:31:43.079Z,19.20
2023-02-11T08:34:14.160Z,21.60
2023-02-11T08:36:44.803Z,20.67
2023-02-11T08:39:19.689Z,19.07
2023-02-11T08:41:49.848Z,20.70
2023-02-11T08:44:18.866Z,20.43
2023-02-11T08:46:49.681Z,19.43
2023-02-11T08:49:18.608Z,20.30
2023-02-11T08:51:48.101Z,20.80
2023-02-11T08:54:17.389Z,20.93
2023-02-11T08:56:47.025Z,21.87
2023-02-11T08:59:17.841Z,21.60
2023-02-11T09:01:47.344Z,21.40
2023-02-11T09:04:17.142Z,20.00
2023-02-11T09:06:45.782Z,19.83
2023-02-11T09:09:16.249Z,20.53
2023-02-11T09:11:46.121Z,20.07
2023-02-11T09:14:20.466Z,20.30
2023-02-11T09:16:49.624Z,18.80
2023-02-11T09:19:20.141Z,20.80
2023-02-11T09:21:49.148Z,20.53
2023-02-11T09:24:17.589Z,19.73
2023-02-11T09:26:46.149Z,19.90
2023-02-11T09:29:14.596Z,19.60
2023-02-11T09:31:43.105Z,17.83
2023-02-11T09:34:13.468Z,20.50
2023-02-11T09:36:43.667Z,22.30
2023-02-11T09:39:17.989Z,20.27
2023-02-11T09:42:30.454Z,19.50
2023-02-11T09:45:00.618Z,20.10
2023-02-11T09:47:34.131Z,20.73
2023-02-11T09:50:07.800Z,19.47
2023-02-11T09:52:45.576Z,19.07
2023-02-11T09:55:22.685Z,20.13
2023-02-11T09:57:51.070Z,20.00
2023-02-11T10:00:25.374Z,20.87
2023-02-11T10:03:22.729Z,20.23
2023-02-11T10:06:26.475Z,20.27
2023-02-11T10:09:07.730Z,20.30
2023-02-11T10:11:47.469Z,19.87
2023-02-11T10:14:37.556Z,20.77
2023-02-11T10:17:20.470Z,21.03
2023-02-11T10:20:16.540Z,20.03
2023-02-11T10:22:50.445Z,20.80
2023-02-11T10:25:25.071Z,19.77
2023-02-11T10:27:56.538Z,19.97
2023-02-11T10:30:33.386Z,20.73
2023-02-11T10:33:11.827Z,20.67
2023-02-11T10:35:40.480Z,19.23
2023-02-11T10:38:10.341Z,19.27
2023-02-11T10:40:40.069Z,21.30
2023-02-11T10:43:14.610Z,21.03
2023-02-11T10:45:46.073Z,21.03
2023-02-11T10:48:43.903Z,21.00
2023-02-11T10:51:22.390Z,21.70
2023-02-11T10:54:13.873Z,21.53
2023-02-11T10:56:50.105Z,22.10
2023-02-11T10:59:28.352Z,21.50
2023-02-11T11:02:01.330Z,22.07
2023-02-11T11:04:41.434Z,20.07
2023-02-11T11:07:21.418Z,21.20
2023-02-11T11:09:54.207Z,23.13
2023-02-11T11:12:40.282Z,22.87
2023-02-11T11:15:21.982Z,22.77
2023-02-11T11:17:51.445Z,22.93
2023-02-11T11:20:27.430Z,21.80
2023-02-11T11:23:15.257Z,23.47
2023-02-11T11:25:47.142Z,23.20
2023-02-11T11:28:27.722Z,23.27
2023-02-11T11:30:58.808Z,24.33
2023-02-11T11:33:32.363Z,25.77
2023-02-11T11:36:05.979Z,24.83
2023-02-11T11:38:37.453Z,25.93
2023-02-11T11:41:24.291Z,24.97
2023-02-11T11:44:05.598Z,26.73
2023-02-11T11:46:37.596Z,25.07
2023-02-11T11:49:27.738Z,25.87
2023-02-11T11:52:11.408Z,24.90
2023-02-11T11:54:41.319Z,22.93
2023-02-11T11:57:16.103Z,26.90
2023-02-11T11:59:46.144Z,24.87
2023-02-11T12:02:54.532Z,26.67
2023-02-11T12:05:29.146Z,25.30
2023-02-11T12:08:14.327Z,25.00
2023-02-11T12:11:04.506Z,24.37
2023-02-11T12:14:01.702Z,25.40
2023-02-11T12:16:45.723Z,26.70
2023-02-11T12:19:56.584Z,25.33
2023-02-11T12:22:43.058Z,26.83
2023-02-11T12:25:40.995Z,27.90
2023-02-11T12:28:25.726Z,26.30
2023-02-11T12:31:28.853Z,26.13
2023-02-11T12:34:29.089Z,24.40
2023-02-11T12:37:10.341Z,26.33
2023-02-11T12:39:46.238Z,27.63
2023-02-11T12:43:05.137Z,26.70
2023-02-11T12:46:20.936Z,26.53
2023-02-11T12:49:29.047Z,27.87
2023-02-11T12:52:16.892Z,26.87
2023-02-11T12:54:52.887Z,25.83
2023-02-11T12:57:26.124Z,25.63
2023-02-11T13:00:04.664Z,25.80
2023-02-11T13:02:43.442Z,25.40
2023-02-11T13:05:26.277Z,24.73
2023-02-11T13:08:01.442Z,23.77
2023-02-11T13:10:35.345Z,26.07
2023-02-11T13:13:20.104Z,25.37
2023-02-11T13:15:56.417Z,24.37
2023-02-11T13:18:37.814Z,25.80
2023-02-11T13:21:35.076Z,25.13
2023-02-11T13:24:20.882Z,27.20
2023-02-11T13:26:58.967Z,26.37
2023-02-11T13:29:41.839Z,27.20
2023-02-11T13:32:13.554Z,26.80
2023-02-11T13:35:00.921Z,27.20
2023-02-11T13:37:37.478Z,26.90
2023-02-11T13:40:22.008Z,28.13
2023-02-11T13:42:54.168Z,28.20
2023-02-11T13:45:31.895Z,28.87
2023-02-11T13:48:03.485Z,26.37
2023-02-11T13:50:38.862Z,28.60
2023-02-11T13:53:09.098Z,27.23
2023-02-11T13:55:38.274Z,26.50
2023-02-11T13:58:39.917Z,27.90
2023-02-11T14:01:08.955Z,28.00
2023-02-11T14:03:57.840Z,27.27
2023-02-11T14:06:46.756Z,28.00
2023-02-11T14:09:41.288Z,27.80
2023-02-11T14:12:35.926Z,25.77
2023-02-11T14:15:27.603Z,26.83
2023-02-11T14:17:55.950Z,26.73
2023-02-11T14:20:45.388Z,26.10
2023-02-11T14:23:28.421Z,26.23
2023-02-11T14:26:29.576Z,26.27
2023-02-11T14:29:07.895Z,27.03
2023-02-11T14:31:43.319Z,26.97
2023-02-11T14:34:45.547Z,27.23
2023-02-11T14:37:28.581Z,25.87
2023-02-11T14:40:11.770Z,24.63
2023-02-11T14:42:41.707Z,23.80
2023-02-11T14:45:17.283Z,24.53
2023-02-11T14:47:53.685Z,25.07
2023-02-11T14:50:28.322Z,26.23
2023-02-11T14:53:01.702Z,26.33
2023-02-11T14:55:34.438Z,25.63
2023-02-11T14:58:16.930Z,24.60
2023-02-11T15:00:58.515Z,24.60
2023-02-11T15:03:30.725Z,25.20
2023-02-11T15:06:02.688Z,23.17
2023-02-11T15:08:33.171Z,24.40
2023-02-11T15:11:04.701Z,24.17
2023-02-11T15:13:36.236Z,24.00
2023-02-11T15:16:09.974Z,25.37
2023-02-11T15:18:43.786Z,25.80
2023-02-11T15:21:12.771Z,24.33
2023-02-11T15:23:45.028Z,24.40
2023-02-11T15:26:22.422Z,24.47
2023-02-11T15:28:53.411Z,24.83
2023-02-11T15:31:24.643Z,24.40
2023-02-11T15:33:54.814Z,24.93
2023-02-11T15:36:36.389Z,23.90
2023-02-11T15:39:32.463Z,23.43
2023-02-11T15:42:40.823Z,24.13
2023-02-11T15:45:29.750Z,23.37
2023-02-11T15:48:11.111Z,23.43
2023-02-11T15:50:41.456Z,22.80
2023-02-11T15:53:28.931Z,21.80
2023-02-11T15:56:05.560Z,21.43
2023-02-11T15:58:39.014Z,21.77
2023-02-11T16:01:10.044Z,22.57
2023-02-11T16:03:38.648Z,22.00
2023-02-11T16:06:22.882Z,22.30
2023-02-11T16:09:22.098Z,22.93
2023-02-11T16:11:59.372Z,22.03
2023-02-11T16:14:34.809Z,22.90
2023-02-11T16:17:08.657Z,20.90
2023-02-11T16:19:43.778Z,21.63
2023-02-11T16:22:18.185Z,21.47
2023-02-11T16:24:51.084Z,20.77
2023-02-11T16:27:25.454Z,20.40
2023-02-11T16:29:54.129Z,20.07
2023-02-11T16:32:26.659Z,20.30
2023-02-11T16:34:57.965Z,20.23
2023-02-11T16:37:26.800Z,18.40
2023-02-11T16:39:55.853Z,18.90
2023-02-11T16:42:24.471Z,18.57
2023-02-11T16:44:52.808Z,19.60
2023-02-11T16:47:27.809Z,19.37
2023-02-11T16:49:57.326Z,20.80
2023-02-11T16:52:26.537Z,20.37
2023-02-11T16:54:55.028Z,18.80
2023-02-11T16:57:28.899Z,19.57
2023-02-11T17:00:02.121Z,18.10
2023-02-11T17:02:36.106Z,18.90
2023-02-11T17:05:08.753Z,18.20
2023-02-11T17:07:37.131Z,18.70
2023-02-11T17:10:14.116Z,17.73
2023-02-11T17:12:42.467Z,17.80
2023-02-11T17:15:11.601Z,17.67
2023-02-11T17:17:41.518Z,16.87
2023-02-11T17:20:13.236Z,17.20
2023-02-11T17:22:41.730Z,16.57
2023-02-11T17:25:10.625Z,16.40
2023-02-11T17:27:39.017Z,16.03
2023-02-11T17:30:09.308Z,15.87
2023-02-11T17:32:40.102Z,16.00
2023-02-11T17:35:09.149Z,15.77
2023-02-11T17:37:37.570Z,14.10
2023-02-11T17:40:07.767Z,14.50
2023-02-11T17:42:37.250Z,13.83
2023-02-11T17:45:06.403Z,18.33
2023-02-11T17:47:34.799Z,15.67
2023-02-11T17:50:05.374Z,12.80
2023-02-11T17:52:33.749Z,13.10
2023-02-11T17:55:02.126Z,13.17
2023-02-11T17:57:30.487Z,12.20
2023-02-11T17:59:59.097Z,12.97
2023-02-11T18:02:27.513Z,13.07
2023-02-11T18:04:57.610Z,13.23
2023-02-11T18:07:28.138Z,12.13
2023-02-11T18:09:57.862Z,12.87
2023-02-11T18:12:26.452Z,13.00
2023-02-11T18:14:58.120Z,12.33
2023-02-11T18:17:27.115Z,13.43
2023-02-11T18:19:57.781Z,13.40
2023-02-11T18:22:28.088Z,13.03
2023-02-11T18:24:56.947Z,12.10
2023-02-11T18:27:26.054Z,12.50
2023-02-11T18:29:54.541Z,12.00
2023-02-11T18:32:22.984Z,12.27
2023-02-11T18:34:51.426Z,11.73
2023-02-11T18:37:20.026Z,11.40
2023-02-11T18:39:49.768Z,11.47
2023-02-11T18:42:18.176Z,10.90
2023-02-11T18:44:46.757Z,11.17
2023-02-11T18:47:15.226Z,11.77
2023-02-11T18:49:43.592Z,10.77
2023-02-11T18:52:12.132Z,11.17
2023-02-11T18:54:40.919Z,11.60
2023-02-11T18:57:10.816Z,10.50
2023-02-11T18:59:39.282Z,10.33
2023-02-11T19:02:07.847Z,10.97
2023-02-11T19:04:38.420Z,11.30
2023-02-11T19:07:07.037Z,11.23
2023-02-11T19:09:35.436Z,11.73
2023-02-11T19:12:04.857Z,10.17
2023-02-11T19:14:35.373Z,9.57
2023-02-11T19:17:06.540Z,10.63
2023-02-11T19:19:37.405Z,10.37
2023-02-11T19:22:10.259Z,10.93
2023-02-11T19:24:39.872Z,9.47
2023-02-11T19:27:08.261Z,10.10
2023-02-11T19:29:38.495Z,9.37
2023-02-11T19:32:07.784Z,9.00
2023-02-11T19:34:41.351Z,9.60
2023-02-11T19:37:12.203Z,8.70
2023-02-11T19:39:40.606Z,9.57
2023-02-11T19:42:08.983Z,9.50
2023-02-11T19:44:39.119Z,9.70
2023-02-11T19:47:07.947Z,8.47
2023-02-11T19:49:36.315Z,8.13
2023-02-11T19:52:07.015Z,8.17
2023-02-11T19:54:35.520Z,8.40
2023-02-11T19:57:03.960Z,8.50
2023-02-11T19:59:32.490Z,7.47
2023-02-11T20:02:02.348Z,8.07
2023-02-11T20:04:32.211Z,8.50
2023-02-11T20:07:00.779Z,8.40
2023-02-11T20:09:31.162Z,7.57
2023-02-11T20:12:00.047Z,7.87
2023-02-11T20:14:28.424Z,7.73
2023-02-11T20:16:56.877Z,8.43
2023-02-11T20:19:27.963Z,8.03
2023-02-11T20:21:56.629Z,7.60
2023-02-11T20:24:26.172Z,7.87
2023-02-11T20:26:56.071Z,8.53
2023-02-11T20:29:26.305Z,7.57
2023-02-11T20:31:55.570Z,7.67
2023-02-11T20:34:25.187Z,7.37
2023-02-11T20:36:55.067Z,7.53
2023-02-11T20:39:25.284Z,8.00
2023-02-11T20:41:54.871Z,7.90
2023-02-11T20:44:24.122Z,7.43
2023-02-11T20:46:55.037Z,8.10
2023-02-11T20:49:25.603Z,7.67
2023-02-11T20:51:56.870Z,7.97
2023-02-11T20:54:26.574Z,7.97
2023-02-11T20:56:57.032Z,7.53
2023-02-11T20:59:25.905Z,8.03
2023-02-11T21:01:57.153Z,7.47
2023-02-11T21:04:29.549Z,7.73
2023-02-11T21:07:02.851Z,8.10
2023-02-11T21:09:33.586Z,8.00
2023-02-11T21:12:03.248Z,7.07
2023-02-11T21:14:32.184Z,7.43
2023-02-11T21:17:00.712Z,6.50
2023-02-11T21:19:29.473Z,6.60
2023-02-11T21:22:00.767Z,6.23
2023-02-11T21:24:30.916Z,6.57
2023-02-11T21:26:59.638Z,4.70
2023-02-11T21:29:28.057Z,4.33
2023-02-11T21:31:56.851Z,2.80
2023-02-11T21:34:25.835Z,1.87
2023-02-11T21:36:54.298Z,1.83
2023-02-11T21:39:26.563Z,1.40
2023-02-11T21:41:55.994Z,1.40
2023-02-11T21:44:24.399Z,1.23
2023-02-11T21:46:52.800Z,1.20
2023-02-11T21:49:21.497Z,1.90
2023-02-11T21:51:49.841Z,1.07
2023-02-11T21:54:19.005Z,1.23
2023-02-11T21:56:51.892Z,1.00
2023-02-11T21:59:20.423Z,1.30
2023-02-11T22:01:48.839Z,1.20
2023-02-11T22:04:17.628Z,1.30
2023-02-11T22:06:46.114Z,1.07
2023-02-11T22:09:14.659Z,1.00
2023-02-11T22:11:43.174Z,1.93
2023-02-11T22:14:13.042Z,1.20
2023-02-11T22:16:41.522Z,0.90
2023-02-11T22:19:10.820Z,1.20
2023-02-11T22:21:40.481Z,1.30
2023-02-11T22:24:09.026Z,1.10
2023-02-11T22:26:37.416Z,1.27
2023-02-11T22:29:05.942Z,1.37
2023-02-11T22:31:37.083Z,1.20
2023-02-11T22:34:06.650Z,1.00
2023-02-11T22:36:37.557Z,1.60
2023-02-11T22:39:09.238Z,1.00
2023-02-11T22:41:39.385Z,1.03
2023-02-11T22:44:08.229Z,1.67
2023-02-11T22:46:39.408Z,1.60
2023-02-11T22:49:09.168Z,1.40
2023-02-11T22:51:37.558Z,1.00
2023-02-11T22:54:08.841Z,1.10
2023-02-11T22:56:37.451Z,0.73
2023-02-11T22:59:08.535Z,0.70
2023-02-11T23:01:38.724Z,0.73
2023-02-11T23:04:09.640Z,0.70
2023-02-11T23:06:38.345Z,0.87
2023-02-11T23:09:12.418Z,1.10
2023-02-11T23:11:41.598Z,1.40
2023-02-11T23:14:12.166Z,1.03
2023-02-11T23:16:42.106Z,1.43
2023-02-11T23:19:12.408Z,1.30
2023-02-11T23:21:40.924Z,0.83
2023-02-11T23:24:12.673Z,1.23
2023-02-11T23:26:41.853Z,1.00
2023-02-11T23:29:10.469Z,1.00
2023-02-11T23:31:44.025Z,1.40
2023-02-11T23:34:15.049Z,1.97
2023-02-11T23:36:43.424Z,2.90
2023-02-11T23:39:15.006Z,3.93
2023-02-11T23:41:43.383Z,2.47
2023-02-11T23:44:12.097Z,1.47
2023-02-11T23:46:42.208Z,1.87
2023-02-11T23:49:10.852Z,1.73
2023-02-11T23:51:39.254Z,2.50
2023-02-11T23:54:07.801Z,2.17
2023-02-11T23:56:37.592Z,1.60
2023-02-11T23:59:06.665Z,1.80
